createdAt,value
2016-10-17T00:00:01.572Z,930.23
2016-10-17T00:01:15.252Z,930.27
2016-10-17T00:02:28.841Z,930.29
2016-10-17T00:03:42.432Z,930.33
2016-10-17T00:04:56.108Z,930.3
2016-10-17T00:06:09.178Z,930.34
2016-10-17T00:07:22.801Z,930.31
2016-10-17T00:08:36.495Z,930.35
2016-10-17T00:09:50.171Z,930.32
2016-10-17T00:11:03.834Z,930.34
2016-10-17T00:12:17.460Z,930.36
2016-10-17T00:13:31.088Z,930.34
2016-10-17T00:14:45.003Z,930.38
2016-10-17T00:15:58.648Z,930.37
2016-10-17T00:17:12.324Z,930.41
2016-10-17T00:18:25.954Z,930.44
2016-10-17T00:19:39.562Z,930.46
2016-10-17T00:20:53.251Z,930.5
2016-10-17T00:22:07.140Z,930.51
2016-10-17T00:23:20.216Z,930.51
2016-10-17T00:24:33.342Z,930.53
2016-10-17T00:25:47.019Z,930.57
2016-10-17T00:27:00.808Z,930.6
2016-10-17T00:28:14.438Z,930.59
2016-10-17T00:29:28.085Z,930.62
2016-10-17T00:30:41.675Z,930.59
2016-10-17T00:31:55.544Z,930.64
2016-10-17T00:33:08.603Z,930.63
2016-10-17T00:34:22.493Z,930.64
2016-10-17T00:35:36.144Z,930.67
2016-10-17T00:36:49.848Z,930.65
2016-10-17T00:38:03.494Z,930.67
2016-10-17T00:39:17.169Z,930.67
2016-10-17T00:40:30.930Z,930.64
2016-10-17T00:41:44.558Z,930.66
2016-10-17T00:42:57.408Z,930.62
2016-10-17T00:44:11.049Z,930.61
2016-10-17T00:45:24.697Z,930.6
2016-10-17T00:46:38.299Z,930.61
2016-10-17T00:47:51.966Z,930.61
2016-10-17T00:49:05.616Z,930.59
2016-10-17T00:50:19.380Z,930.61
2016-10-17T00:51:32.973Z,930.64
2016-10-17T00:52:46.578Z,930.63
2016-10-17T00:53:59.641Z,930.6
2016-10-17T00:55:13.257Z,930.64
2016-10-17T00:56:26.854Z,930.63
2016-10-17T00:57:40.424Z,930.61
2016-10-17T00:58:54.052Z,930.61
2016-10-17T01:00:07.605Z,930.62
2016-10-17T01:01:21.234Z,930.57
2016-10-17T01:02:34.893Z,930.56
2016-10-17T01:03:48.600Z,930.6
2016-10-17T01:05:02.299Z,930.56
2016-10-17T01:06:16.193Z,930.59
2016-10-17T01:07:29.840Z,930.6
2016-10-17T01:08:43.495Z,930.59
2016-10-17T01:09:57.205Z,930.56
2016-10-17T01:11:10.882Z,930.58
2016-10-17T01:12:24.184Z,930.56
2016-10-17T01:13:37.855Z,930.53
2016-10-17T01:14:51.536Z,930.51
2016-10-17T01:16:05.184Z,930.5
2016-10-17T01:17:18.775Z,930.52
2016-10-17T01:18:31.841Z,930.52
2016-10-17T01:19:45.502Z,930.54
2016-10-17T01:20:58.618Z,930.54
2016-10-17T01:22:12.228Z,930.57
2016-10-17T01:23:25.885Z,930.56
2016-10-17T01:24:39.756Z,930.6
2016-10-17T01:25:53.644Z,930.6
2016-10-17T01:27:07.281Z,930.61
2016-10-17T01:28:21.224Z,930.62
2016-10-17T01:29:34.685Z,930.62
2016-10-17T01:30:47.895Z,930.63
2016-10-17T01:32:00.999Z,930.62
2016-10-17T01:33:14.661Z,930.66
2016-10-17T01:34:28.515Z,930.65
2016-10-17T01:35:42.127Z,930.68
2016-10-17T01:36:55.773Z,930.7
2016-10-17T01:38:09.445Z,930.74
2016-10-17T01:39:37.142Z,930.8
2016-10-17T01:40:50.827Z,930.79
2016-10-17T01:42:04.405Z,930.83
2016-10-17T01:43:17.511Z,930.77
2016-10-17T01:44:31.109Z,930.76
2016-10-17T01:45:44.915Z,930.74
2016-10-17T01:46:58.522Z,930.72
2016-10-17T01:48:12.338Z,930.72
2016-10-17T01:49:25.583Z,930.71
2016-10-17T01:50:39.228Z,930.69
2016-10-17T01:51:52.867Z,930.71
2016-10-17T01:53:06.463Z,930.72
2016-10-17T01:54:19.541Z,930.69
2016-10-17T01:55:33.175Z,930.72
2016-10-17T01:56:46.912Z,930.69
2016-10-17T01:58:00.514Z,930.73
2016-10-17T01:59:14.440Z,930.74
2016-10-17T02:00:28.087Z,930.73
2016-10-17T02:01:41.741Z,930.78
2016-10-17T02:02:55.546Z,930.75
2016-10-17T02:04:09.205Z,930.73
2016-10-17T02:05:22.857Z,930.72
2016-10-17T02:06:36.530Z,930.76
2016-10-17T02:07:50.176Z,930.74
2016-10-17T02:09:03.844Z,930.75
2016-10-17T02:10:17.382Z,930.78
2016-10-17T02:11:30.933Z,930.79
2016-10-17T02:12:44.514Z,930.78
2016-10-17T02:13:58.194Z,930.76
2016-10-17T02:15:11.249Z,930.76
2016-10-17T02:16:24.899Z,930.76
2016-10-17T02:17:38.527Z,930.75
2016-10-17T02:18:52.428Z,930.77
2016-10-17T02:20:05.806Z,930.79
2016-10-17T02:21:19.470Z,930.75
2016-10-17T02:22:33.138Z,930.77
2016-10-17T02:23:46.775Z,930.78
2016-10-17T02:25:00.117Z,930.76
2016-10-17T02:26:13.810Z,930.75
2016-10-17T02:27:27.694Z,930.7
2016-10-17T02:28:41.909Z,930.67
2016-10-17T02:29:55.536Z,930.7
2016-10-17T02:31:09.175Z,930.72
2016-10-17T02:32:22.843Z,930.74
2016-10-17T02:33:36.542Z,930.75
2016-10-17T02:34:50.239Z,930.73
2016-10-17T02:36:02.843Z,930.77
2016-10-17T02:37:16.506Z,930.75
2016-10-17T02:38:30.136Z,930.71
2016-10-17T02:39:43.754Z,930.72
2016-10-17T02:40:57.435Z,930.75
2016-10-17T02:42:11.086Z,930.73
2016-10-17T02:43:24.741Z,930.75
2016-10-17T02:44:38.439Z,930.73
2016-10-17T02:45:52.396Z,930.73
2016-10-17T02:47:05.928Z,930.73
2016-10-17T02:48:19.535Z,930.7
2016-10-17T02:49:33.167Z,930.71
2016-10-17T02:50:46.283Z,930.7
2016-10-17T02:51:59.995Z,930.7
2016-10-17T02:53:13.596Z,930.67
2016-10-17T02:54:27.265Z,930.71
2016-10-17T02:55:40.939Z,930.74
2016-10-17T02:56:54.591Z,930.76
2016-10-17T02:58:07.779Z,930.77
2016-10-17T02:59:21.374Z,930.74
2016-10-17T03:00:34.476Z,930.71
2016-10-17T03:01:47.551Z,930.72
2016-10-17T03:03:01.172Z,930.72
2016-10-17T03:04:14.800Z,930.7
2016-10-17T03:05:28.551Z,930.66
2016-10-17T03:06:42.248Z,930.66
2016-10-17T03:07:55.899Z,930.67
2016-10-17T03:09:09.981Z,930.66
2016-10-17T03:10:23.635Z,930.68
2016-10-17T03:11:36.768Z,930.69
2016-10-17T03:12:50.376Z,930.65
2016-10-17T03:14:03.995Z,930.65
2016-10-17T03:15:17.705Z,930.59
2016-10-17T03:16:31.288Z,930.61
2016-10-17T03:17:45.015Z,930.62
2016-10-17T03:18:58.107Z,930.57
2016-10-17T03:20:11.726Z,930.58
2016-10-17T03:21:25.627Z,930.6
2016-10-17T03:22:39.256Z,930.61
2016-10-17T03:23:52.881Z,930.66
2016-10-17T03:25:06.478Z,930.6
2016-10-17T03:26:20.117Z,930.6
2016-10-17T03:27:33.728Z,930.59
2016-10-17T03:28:47.362Z,930.58
2016-10-17T03:30:01.029Z,930.55
2016-10-17T03:31:14.645Z,930.54
2016-10-17T03:32:28.256Z,930.54
2016-10-17T03:33:41.623Z,930.53
2016-10-17T03:34:55.528Z,930.53
2016-10-17T03:36:09.148Z,930.5
2016-10-17T03:37:22.757Z,930.49
2016-10-17T03:38:36.317Z,930.47
2016-10-17T03:39:49.962Z,930.48
2016-10-17T03:41:03.603Z,930.47
2016-10-17T03:42:16.683Z,930.45
2016-10-17T03:43:30.373Z,930.42
2016-10-17T03:44:43.539Z,930.41
2016-10-17T03:45:56.666Z,930.4
2016-10-17T03:47:10.315Z,930.32
2016-10-17T03:48:23.936Z,930.36
2016-10-17T03:49:37.569Z,930.36
2016-10-17T03:50:50.720Z,930.35
2016-10-17T03:52:04.370Z,930.35
2016-10-17T03:53:18.140Z,930.33
2016-10-17T03:54:31.182Z,930.32
2016-10-17T03:55:44.298Z,930.31
2016-10-17T03:56:57.965Z,930.29
2016-10-17T03:58:11.601Z,930.29
2016-10-17T03:59:25.201Z,930.28
2016-10-17T04:00:38.902Z,930.33
2016-10-17T04:01:52.540Z,930.31
2016-10-17T04:03:05.631Z,930.32
2016-10-17T04:04:19.467Z,930.31
2016-10-17T04:05:33.090Z,930.28
2016-10-17T04:06:46.293Z,930.28
2016-10-17T04:07:59.418Z,930.23
2016-10-17T04:09:13.038Z,930.26
2016-10-17T04:10:26.649Z,930.19
2016-10-17T04:11:40.486Z,930.15
2016-10-17T04:12:53.673Z,930.12
2016-10-17T04:14:06.753Z,930.1
2016-10-17T04:15:20.420Z,930.1
2016-10-17T04:16:34.058Z,930.09
2016-10-17T04:17:47.696Z,930.07
2016-10-17T04:19:01.356Z,930.09
2016-10-17T04:20:15.094Z,930.09
2016-10-17T04:21:28.792Z,930.07
2016-10-17T04:22:41.949Z,930.08
2016-10-17T04:23:55.529Z,930.02
2016-10-17T04:25:09.155Z,930.03
2016-10-17T04:26:22.800Z,930.02
2016-10-17T04:27:36.416Z,930
2016-10-17T04:28:49.578Z,930
2016-10-17T04:30:03.217Z,929.97
2016-10-17T04:31:16.875Z,929.97
2016-10-17T04:32:30.532Z,929.92
2016-10-17T04:33:44.352Z,929.92
2016-10-17T04:34:57.934Z,929.93
2016-10-17T04:36:11.580Z,929.93
2016-10-17T04:37:25.217Z,929.92
2016-10-17T04:38:38.850Z,929.95
2016-10-17T04:39:52.499Z,929.93
2016-10-17T04:41:05.094Z,929.98
2016-10-17T04:42:18.686Z,930.01
2016-10-17T04:43:32.364Z,930.06
2016-10-17T04:44:46.198Z,930.09
2016-10-17T04:45:59.882Z,930.04
2016-10-17T04:47:13.525Z,930.06
2016-10-17T04:48:27.167Z,930.03
2016-10-17T04:49:40.807Z,930.01
2016-10-17T04:50:53.944Z,929.96
2016-10-17T04:52:07.006Z,929.99
2016-10-17T04:53:20.649Z,930
2016-10-17T04:54:33.761Z,929.99
2016-10-17T04:55:47.603Z,929.99
2016-10-17T04:57:01.201Z,929.97
2016-10-17T04:58:14.834Z,929.97
2016-10-17T04:59:28.671Z,929.92
2016-10-17T05:00:42.272Z,929.94
2016-10-17T05:01:55.891Z,929.92
2016-10-17T05:03:09.461Z,929.89
2016-10-17T05:04:23.118Z,929.89
2016-10-17T05:05:36.737Z,929.88
2016-10-17T05:06:50.361Z,929.86
2016-10-17T05:08:04.021Z,929.87
2016-10-17T05:09:17.369Z,929.87
2016-10-17T05:10:31.034Z,929.83
2016-10-17T05:11:44.139Z,929.87
2016-10-17T05:12:57.807Z,929.87
2016-10-17T05:14:11.539Z,929.88
2016-10-17T05:15:25.265Z,929.84
2016-10-17T05:16:38.894Z,929.87
2016-10-17T05:17:52.466Z,929.89
2016-10-17T05:19:06.045Z,929.86
2016-10-17T05:20:19.359Z,929.88
2016-10-17T05:21:33.010Z,929.91
2016-10-17T05:22:46.340Z,929.97
2016-10-17T05:23:59.970Z,930.09
2016-10-17T05:25:13.589Z,930.3
2016-10-17T05:26:27.211Z,930.42
2016-10-17T05:27:40.792Z,930.44
2016-10-17T05:28:54.466Z,930.44
2016-10-17T05:30:08.138Z,930.44
2016-10-17T05:31:21.759Z,930.46
2016-10-17T05:32:35.624Z,930.58
2016-10-17T05:33:49.390Z,930.67
2016-10-17T05:35:02.964Z,930.64
2016-10-17T05:36:16.711Z,930.69
2016-10-17T05:37:30.300Z,930.77
2016-10-17T05:38:43.931Z,930.92
2016-10-17T05:39:57.047Z,930.97
2016-10-17T05:41:10.216Z,930.92
2016-10-17T05:42:23.840Z,930.94
2016-10-17T05:43:37.483Z,930.99
2016-10-17T05:44:51.143Z,931.02
2016-10-17T05:46:04.268Z,931.01
2016-10-17T05:47:17.262Z,931.06
2016-10-17T05:48:29.774Z,931.06
2016-10-17T05:49:43.382Z,931.17
2016-10-17T05:50:57.002Z,931.17
2016-10-17T05:52:10.650Z,931.15
2016-10-17T05:53:23.267Z,931.16
2016-10-17T05:54:36.934Z,931.24
2016-10-17T05:55:50.594Z,931.34
2016-10-17T05:57:04.259Z,931.31
2016-10-17T05:58:17.384Z,931.4
2016-10-17T05:59:30.972Z,931.42
2016-10-17T06:00:44.852Z,931.36
2016-10-17T06:01:58.132Z,931.4
2016-10-17T06:03:10.395Z,931.44
2016-10-17T06:04:23.990Z,931.5
2016-10-17T06:05:37.611Z,931.47
2016-10-17T06:06:50.159Z,931.47
2016-10-17T06:08:02.751Z,931.43
2016-10-17T06:09:16.402Z,931.41
2016-10-17T06:10:28.939Z,931.4
2016-10-17T06:11:40.989Z,931.46
2016-10-17T06:12:54.125Z,931.43
2016-10-17T06:14:07.732Z,931.53
2016-10-17T06:15:21.378Z,931.48
2016-10-17T06:16:34.430Z,931.46
2016-10-17T06:17:48.193Z,931.44
2016-10-17T06:19:01.886Z,931.5
2016-10-17T06:20:15.522Z,931.53
2016-10-17T06:21:29.135Z,931.54
2016-10-17T06:22:42.702Z,931.51
2016-10-17T06:23:56.259Z,931.51
2016-10-17T06:25:09.903Z,931.58
2016-10-17T06:26:23.644Z,931.52
2016-10-17T06:27:37.273Z,931.58
2016-10-17T06:28:50.900Z,931.6
2016-10-17T06:30:04.479Z,931.56
2016-10-17T06:31:18.193Z,931.5
2016-10-17T06:32:31.800Z,931.62
2016-10-17T06:33:45.436Z,931.59
2016-10-17T06:34:59.084Z,931.59
2016-10-17T06:36:12.700Z,931.65
2016-10-17T06:37:26.484Z,931.57
2016-10-17T06:38:40.191Z,931.56
2016-10-17T06:39:53.291Z,931.55
2016-10-17T06:41:06.970Z,931.53
2016-10-17T06:42:20.639Z,931.57
2016-10-17T06:43:34.171Z,931.56
2016-10-17T06:44:47.793Z,931.56
2016-10-17T06:46:01.449Z,931.55
2016-10-17T06:47:15.134Z,931.55
2016-10-17T06:48:28.755Z,931.53
2016-10-17T06:49:42.455Z,931.55
2016-10-17T06:50:56.115Z,931.6
2016-10-17T06:52:09.805Z,931.61
2016-10-17T06:53:23.452Z,931.64
2016-10-17T06:54:36.580Z,931.71
2016-10-17T06:55:50.207Z,931.74
2016-10-17T06:57:03.787Z,931.77
2016-10-17T06:58:16.863Z,931.78
2016-10-17T06:59:30.505Z,931.83
2016-10-17T07:00:44.168Z,931.71
2016-10-17T07:01:57.829Z,931.77
2016-10-17T07:03:11.531Z,931.83
2016-10-17T07:04:25.194Z,931.75
2016-10-17T07:05:38.912Z,931.78
2016-10-17T07:06:52.527Z,931.79
2016-10-17T07:08:06.131Z,931.8
2016-10-17T07:09:20.026Z,931.8
2016-10-17T07:10:33.756Z,931.76
2016-10-17T07:11:47.184Z,931.76
2016-10-17T07:13:00.768Z,931.8
2016-10-17T07:14:14.246Z,931.78
2016-10-17T07:15:27.711Z,931.82
2016-10-17T07:16:41.017Z,931.83
2016-10-17T07:17:54.606Z,931.82
2016-10-17T07:19:08.224Z,931.77
2016-10-17T07:20:21.906Z,931.77
2016-10-17T07:21:35.514Z,931.76
2016-10-17T07:22:49.421Z,931.68
2016-10-17T07:24:03.019Z,931.68
2016-10-17T07:25:16.382Z,931.75
2016-10-17T07:26:29.247Z,931.74
2016-10-17T07:27:42.886Z,931.76
2016-10-17T07:28:56.515Z,931.77
2016-10-17T07:30:09.605Z,931.71
2016-10-17T07:31:23.407Z,931.76
2016-10-17T07:32:36.455Z,931.73
2016-10-17T07:33:49.269Z,931.7
2016-10-17T07:35:02.902Z,931.71
2016-10-17T07:36:16.529Z,931.69
2016-10-17T07:37:30.130Z,931.65
2016-10-17T07:38:43.761Z,931.63
2016-10-17T07:39:57.389Z,931.63
2016-10-17T07:41:10.495Z,931.61
2016-10-17T07:42:24.098Z,931.64
2016-10-17T07:43:37.756Z,931.66
2016-10-17T07:44:51.413Z,931.66
2016-10-17T07:46:05.076Z,931.64
2016-10-17T07:47:18.786Z,931.62
2016-10-17T07:48:32.423Z,931.63
2016-10-17T07:49:45.533Z,931.61
2016-10-17T07:50:59.229Z,931.62
2016-10-17T07:52:12.603Z,931.56
2016-10-17T07:53:26.206Z,931.59
2016-10-17T07:54:39.348Z,931.61
2016-10-17T07:55:52.961Z,931.65
2016-10-17T07:57:06.052Z,931.64
2016-10-17T07:58:19.617Z,931.69
2016-10-17T08:00:42.969Z,931.68
2016-10-17T08:01:56.520Z,931.65
2016-10-17T08:03:10.193Z,931.65
2016-10-17T08:04:23.806Z,931.59
2016-10-17T08:05:37.488Z,931.64
2016-10-17T08:06:51.029Z,931.59
2016-10-17T08:08:04.108Z,931.57
2016-10-17T08:09:17.719Z,931.55
2016-10-17T08:10:30.851Z,931.6
2016-10-17T08:11:44.534Z,931.61
2016-10-17T08:12:58.174Z,931.61
2016-10-17T08:14:11.814Z,931.63
2016-10-17T08:15:25.747Z,931.65
2016-10-17T08:16:39.432Z,931.68
2016-10-17T08:17:52.845Z,931.66
2016-10-17T08:19:06.468Z,931.68
2016-10-17T08:20:20.079Z,931.72
2016-10-17T08:21:33.982Z,931.73
2016-10-17T08:22:47.649Z,931.78
2016-10-17T08:24:01.016Z,931.72
2016-10-17T08:25:14.587Z,931.72
2016-10-17T08:26:28.272Z,931.69
2016-10-17T08:27:41.875Z,931.68
2016-10-17T08:28:55.698Z,931.69
2016-10-17T08:30:08.801Z,931.63
2016-10-17T08:31:22.549Z,931.62
2016-10-17T08:32:35.655Z,931.65
2016-10-17T08:33:49.500Z,931.63
2016-10-17T08:35:03.139Z,931.61
2016-10-17T08:36:16.780Z,931.66
2016-10-17T08:37:30.471Z,931.68
2016-10-17T08:38:43.327Z,931.61
2016-10-17T08:39:56.997Z,931.58
2016-10-17T08:41:10.611Z,931.58
2016-10-17T08:42:24.250Z,931.59
2016-10-17T08:43:37.856Z,931.48
2016-10-17T08:44:51.444Z,931.49
2016-10-17T08:46:05.042Z,931.45
2016-10-17T08:47:18.650Z,931.47
2016-10-17T08:48:31.459Z,931.43
2016-10-17T08:49:45.302Z,931.45
2016-10-17T08:50:58.961Z,931.43
2016-10-17T08:52:12.547Z,931.44
2016-10-17T08:53:26.169Z,931.42
2016-10-17T08:54:39.810Z,931.45
2016-10-17T08:55:53.202Z,931.4
2016-10-17T08:57:06.801Z,931.37
2016-10-17T08:58:20.471Z,931.35
2016-10-17T08:59:34.166Z,931.36
2016-10-17T09:00:47.294Z,931.32
2016-10-17T09:02:00.884Z,931.37
2016-10-17T09:03:14.548Z,931.31
2016-10-17T09:04:27.678Z,931.26
2016-10-17T09:05:41.291Z,931.28
2016-10-17T09:06:54.962Z,931.22
2016-10-17T09:08:08.533Z,931.27
2016-10-17T09:09:22.184Z,931.26
2016-10-17T09:10:35.811Z,931.21
2016-10-17T09:11:49.617Z,931.23
2016-10-17T09:13:03.300Z,931.22
2016-10-17T09:14:17.014Z,931.2
2016-10-17T09:15:29.844Z,931.21
2016-10-17T09:16:43.474Z,931.22
2016-10-17T09:17:57.174Z,931.2
2016-10-17T09:19:10.440Z,931.2
2016-10-17T09:20:22.988Z,931.17
2016-10-17T09:21:36.666Z,931.17
2016-10-17T09:22:49.988Z,931.18
2016-10-17T09:24:03.659Z,931.2
2016-10-17T09:25:17.335Z,931.16
2016-10-17T09:26:30.423Z,931.17
2016-10-17T09:27:44.077Z,931.16
2016-10-17T09:28:57.813Z,931.15
2016-10-17T09:30:11.461Z,931.13
2016-10-17T09:31:25.071Z,931.13
2016-10-17T09:32:38.709Z,931.13
2016-10-17T09:33:52.232Z,931.19
2016-10-17T09:35:05.872Z,931.18
2016-10-17T09:36:18.931Z,931.16
2016-10-17T09:37:32.581Z,931.2
2016-10-17T09:38:46.229Z,931.2
2016-10-17T09:39:59.888Z,931.2
2016-10-17T09:41:12.957Z,931.2
2016-10-17T09:42:26.607Z,931.2
2016-10-17T09:43:39.979Z,931.15
2016-10-17T09:44:53.029Z,931.17
2016-10-17T09:46:06.448Z,931.18
2016-10-17T09:47:19.621Z,931.19
2016-10-17T09:48:33.275Z,931.17
2016-10-17T09:49:46.855Z,931.17
2016-10-17T09:50:59.958Z,931.13
2016-10-17T09:52:13.645Z,931.11
2016-10-17T09:53:27.290Z,931.11
2016-10-17T09:54:40.958Z,931.09
2016-10-17T09:55:54.533Z,931.1
2016-10-17T09:57:08.169Z,931.07
2016-10-17T09:58:21.238Z,931.08
2016-10-17T09:59:34.818Z,931.08
2016-10-17T10:00:48.438Z,931.05
2016-10-17T10:02:01.497Z,931.04
2016-10-17T10:03:15.316Z,931.05
2016-10-17T10:04:28.903Z,931.04
2016-10-17T10:05:42.534Z,931.03
2016-10-17T10:06:56.244Z,931.03
2016-10-17T10:08:09.894Z,931.03
2016-10-17T10:09:22.535Z,930.94
2016-10-17T10:10:36.149Z,930.98
2016-10-17T10:11:49.905Z,930.98
2016-10-17T10:13:03.544Z,930.99
2016-10-17T10:14:17.203Z,930.98
2016-10-17T10:15:30.597Z,930.93
2016-10-17T10:16:44.222Z,930.99
2016-10-17T10:17:57.580Z,930.96
2016-10-17T10:19:11.191Z,931.04
2016-10-17T10:20:24.927Z,931
2016-10-17T10:21:38.559Z,931.02
2016-10-17T10:22:52.255Z,931.02
2016-10-17T10:24:05.367Z,931.05
2016-10-17T10:25:18.500Z,931.01
2016-10-17T10:26:32.123Z,931.03
2016-10-17T10:27:45.646Z,931.06
2016-10-17T10:28:58.792Z,931.1
2016-10-17T10:30:11.865Z,931.11
2016-10-17T10:31:25.461Z,931.12
2016-10-17T10:32:38.656Z,931.13
2016-10-17T10:33:51.782Z,931.12
2016-10-17T10:35:04.873Z,931.1
2016-10-17T10:36:17.995Z,931.07
2016-10-17T10:37:31.588Z,931.12
2016-10-17T10:38:45.363Z,931.11
2016-10-17T10:39:58.197Z,931.09
2016-10-17T10:41:11.816Z,931.08
2016-10-17T10:42:24.886Z,931.02
2016-10-17T10:43:38.488Z,931.03
2016-10-17T10:44:52.123Z,931.09
2016-10-17T10:46:05.241Z,931.07
2016-10-17T10:47:18.824Z,931.04
2016-10-17T10:48:32.451Z,931.01
2016-10-17T10:49:46.080Z,931.01
2016-10-17T10:50:59.892Z,930.99
2016-10-17T10:52:13.545Z,930.98
2016-10-17T10:53:27.168Z,930.94
2016-10-17T10:54:40.232Z,930.93
2016-10-17T10:55:53.971Z,930.97
2016-10-17T10:57:07.640Z,930.99
2016-10-17T10:58:21.290Z,930.91
2016-10-17T10:59:34.357Z,930.91
2016-10-17T11:00:48.012Z,930.88
2016-10-17T11:02:01.095Z,930.9
2016-10-17T11:03:14.737Z,930.89
2016-10-17T11:04:28.418Z,930.87
2016-10-17T11:05:42.062Z,930.88
2016-10-17T11:06:55.923Z,930.87
2016-10-17T11:08:09.037Z,930.83
2016-10-17T11:09:22.222Z,930.81
2016-10-17T11:10:35.806Z,930.82
2016-10-17T11:11:49.609Z,930.81
2016-10-17T11:13:02.769Z,930.8
2016-10-17T11:14:15.958Z,930.78
2016-10-17T11:15:29.594Z,930.77
2016-10-17T11:16:42.416Z,930.79
2016-10-17T11:17:55.542Z,930.82
2016-10-17T11:19:09.150Z,930.81
2016-10-17T11:20:22.850Z,930.84
2016-10-17T11:21:36.501Z,930.78
2016-10-17T11:22:49.718Z,930.76
2016-10-17T11:24:03.374Z,930.73
2016-10-17T11:25:17.062Z,930.73
2016-10-17T11:26:30.664Z,930.73
2016-10-17T11:27:43.780Z,930.84
2016-10-17T11:28:57.381Z,930.79
2016-10-17T11:30:10.975Z,930.84
2016-10-17T11:31:24.624Z,930.88
2016-10-17T11:32:37.667Z,930.97
2016-10-17T11:33:50.765Z,930.93
2016-10-17T11:35:04.370Z,930.92
2016-10-17T11:36:17.445Z,930.97
2016-10-17T11:37:30.273Z,930.97
2016-10-17T11:38:42.833Z,930.96
2016-10-17T11:39:56.431Z,930.9
2016-10-17T11:41:10.060Z,930.84
2016-10-17T11:42:23.182Z,930.86
2016-10-17T11:43:36.553Z,930.86
2016-10-17T11:44:49.975Z,930.86
2016-10-17T11:46:03.611Z,930.82
2016-10-17T11:47:17.270Z,930.83
2016-10-17T11:48:30.558Z,930.74
2016-10-17T11:49:44.173Z,930.63
2016-10-17T11:50:57.785Z,930.69
2016-10-17T11:52:10.579Z,930.68
2016-10-17T11:53:24.447Z,930.65
2016-10-17T11:54:37.543Z,930.56
2016-10-17T11:55:50.708Z,930.55
2016-10-17T11:57:04.342Z,930.6
2016-10-17T11:58:17.972Z,930.59
2016-10-17T11:59:31.561Z,930.6
2016-10-17T12:00:44.107Z,930.54
2016-10-17T12:01:57.254Z,930.63
2016-10-17T12:03:09.781Z,930.54
2016-10-17T12:04:22.838Z,930.57
2016-10-17T12:05:35.906Z,930.59
2016-10-17T12:06:48.460Z,930.55
2016-10-17T12:08:02.079Z,930.57
2016-10-17T12:09:15.733Z,930.58
2016-10-17T12:10:29.431Z,930.58
2016-10-17T12:11:42.551Z,930.57
2016-10-17T12:12:56.286Z,930.61
2016-10-17T12:14:09.384Z,930.63
2016-10-17T12:15:23.030Z,930.62
2016-10-17T12:16:36.670Z,930.57
2016-10-17T12:17:50.302Z,930.6
2016-10-17T12:19:03.992Z,930.61
2016-10-17T12:20:17.730Z,930.59
2016-10-17T12:21:31.660Z,930.5
2016-10-17T12:22:44.993Z,930.53
2016-10-17T12:23:58.694Z,930.41
2016-10-17T12:25:11.725Z,930.5
2016-10-17T12:26:25.403Z,930.44
2016-10-17T12:27:39.078Z,930.4
2016-10-17T12:28:52.867Z,930.34
2016-10-17T12:30:06.013Z,930.36
2016-10-17T12:31:19.751Z,930.35
2016-10-17T12:32:33.484Z,930.35
2016-10-17T12:33:46.576Z,930.34
2016-10-17T12:35:00.147Z,930.32
2016-10-17T12:36:13.790Z,930.25
2016-10-17T12:37:27.419Z,930.16
2016-10-17T12:38:40.545Z,930.16
2016-10-17T12:39:54.153Z,930.1
2016-10-17T12:41:07.754Z,930.17
2016-10-17T12:42:21.385Z,930.14
2016-10-17T12:43:35.016Z,930.11
2016-10-17T12:44:48.670Z,930.12
2016-10-17T12:46:02.342Z,930.04
2016-10-17T12:47:15.943Z,930.02
2016-10-17T12:48:29.089Z,929.97
2016-10-17T12:49:42.767Z,929.93
2016-10-17T12:50:56.455Z,929.94
2016-10-17T12:52:10.321Z,929.9
2016-10-17T12:53:24.039Z,929.89
2016-10-17T12:54:37.674Z,929.9
2016-10-17T12:55:50.364Z,929.87
2016-10-17T12:57:03.993Z,929.86
2016-10-17T12:58:17.637Z,929.86
2016-10-17T12:59:30.716Z,929.82
2016-10-17T13:00:44.369Z,929.82
2016-10-17T13:01:58.018Z,929.78
2016-10-17T13:03:11.067Z,929.81
2016-10-17T13:04:24.214Z,929.71
2016-10-17T13:05:37.432Z,929.67
2016-10-17T13:06:51.020Z,929.62
2016-10-17T13:08:04.674Z,929.66
2016-10-17T13:09:17.219Z,929.61
2016-10-17T13:10:30.888Z,929.58
2016-10-17T13:11:44.510Z,929.55
2016-10-17T13:12:58.134Z,929.58
2016-10-17T13:14:11.285Z,929.55
2016-10-17T13:15:24.377Z,929.5
2016-10-17T13:16:36.919Z,929.48
2016-10-17T13:17:49.475Z,929.49
2016-10-17T13:19:02.505Z,929.45
2016-10-17T13:20:16.105Z,929.52
2016-10-17T13:21:29.770Z,929.49
2016-10-17T13:22:43.440Z,929.48
2016-10-17T13:23:57.349Z,929.44
2016-10-17T13:25:10.969Z,929.31
2016-10-17T13:26:24.630Z,929.27
2016-10-17T13:27:38.300Z,929.25
2016-10-17T13:28:51.925Z,929.23
2016-10-17T13:30:04.993Z,929.21
2016-10-17T13:31:18.621Z,929.23
2016-10-17T13:32:31.235Z,929.25
2016-10-17T13:33:44.917Z,929.33
2016-10-17T13:34:58.021Z,929.22
2016-10-17T13:36:11.723Z,929.26
2016-10-17T13:37:25.357Z,929.28
2016-10-17T13:38:38.971Z,929.24
2016-10-17T13:39:52.030Z,929.25
2016-10-17T13:41:05.729Z,929.25
2016-10-17T13:42:19.374Z,929.27
2016-10-17T13:43:33.015Z,929.25
2016-10-17T13:44:46.706Z,929.14
2016-10-17T13:46:00.249Z,929.15
2016-10-17T13:47:12.278Z,929.1
2016-10-17T13:48:26.106Z,929.13
2016-10-17T13:49:39.769Z,929.09
2016-10-17T13:50:52.933Z,929.1
2016-10-17T13:52:06.519Z,929.13
2016-10-17T13:53:20.161Z,929.07
2016-10-17T13:54:33.285Z,929.11
2016-10-17T13:55:46.430Z,929.04
2016-10-17T13:56:59.538Z,929.11
2016-10-17T13:58:13.178Z,929.15
2016-10-17T13:59:26.760Z,929.14
2016-10-17T14:00:39.845Z,929.07
2016-10-17T14:01:53.556Z,929.04
2016-10-17T14:03:06.151Z,929.05
2016-10-17T14:04:19.812Z,929.09
2016-10-17T14:05:33.552Z,929.05
2016-10-17T14:06:47.197Z,928.99
2016-10-17T14:08:00.344Z,929.01
2016-10-17T14:09:12.499Z,929.07
2016-10-17T14:10:26.106Z,929
2016-10-17T14:11:39.611Z,929.09
2016-10-17T14:12:52.904Z,929.05
2016-10-17T14:14:05.952Z,929.06
2016-10-17T14:15:19.741Z,928.99
2016-10-17T14:16:33.113Z,928.91
2016-10-17T14:17:46.753Z,928.92
2016-10-17T14:19:00.390Z,928.9
2016-10-17T14:20:14.053Z,928.86
2016-10-17T14:21:27.778Z,928.85
2016-10-17T14:22:41.530Z,928.84
2016-10-17T14:23:55.205Z,928.87
2016-10-17T14:25:08.784Z,928.9
2016-10-17T14:26:21.928Z,928.88
2016-10-17T14:27:35.691Z,928.9
2016-10-17T14:28:49.409Z,928.85
2016-10-17T14:30:03.131Z,928.88
2016-10-17T14:31:16.265Z,928.84
2016-10-17T14:32:28.841Z,928.82
2016-10-17T14:33:42.458Z,928.78
2016-10-17T14:34:55.556Z,928.76
2016-10-17T14:36:09.215Z,928.83
2016-10-17T14:37:22.885Z,928.73
2016-10-17T14:38:35.640Z,928.71
2016-10-17T14:39:49.233Z,928.74
2016-10-17T14:41:02.388Z,928.72
2016-10-17T14:42:16.051Z,928.68
2016-10-17T14:43:29.181Z,928.83
2016-10-17T14:44:41.798Z,928.82
2016-10-17T14:45:54.941Z,928.85
2016-10-17T14:47:08.624Z,928.77
2016-10-17T14:48:21.799Z,928.82
2016-10-17T14:49:34.408Z,928.79
2016-10-17T14:50:48.091Z,928.77
2016-10-17T14:52:01.793Z,928.89
2016-10-17T14:53:14.965Z,928.86
2016-10-17T14:54:27.555Z,928.8
2016-10-17T14:55:41.223Z,928.74
2016-10-17T14:56:54.840Z,928.73
2016-10-17T14:58:08.501Z,928.66
2016-10-17T14:59:22.120Z,928.62
2016-10-17T15:00:35.475Z,928.67
2016-10-17T15:01:49.380Z,928.64
2016-10-17T15:03:02.467Z,928.69
2016-10-17T15:04:15.533Z,928.68
2016-10-17T15:05:29.149Z,928.67
2016-10-17T15:06:42.174Z,928.78
2016-10-17T15:07:55.516Z,928.72
2016-10-17T15:09:09.164Z,928.63
2016-10-17T15:10:22.243Z,928.63
2016-10-17T15:11:35.405Z,928.65
2016-10-17T15:12:49.038Z,928.59
2016-10-17T15:14:02.710Z,928.59
2016-10-17T15:15:15.553Z,928.5
2016-10-17T15:16:29.185Z,928.55
2016-10-17T15:17:42.807Z,928.58
2016-10-17T15:18:55.385Z,928.54
2016-10-17T15:20:09.046Z,928.43
2016-10-17T15:21:22.860Z,928.41